sensor_id;sensor_type;location;lat;lon;timestamp;P1;durP1;ratioP1;P2;durP2;ratioP2
73512;SDS011;61754;55.008;73.348;2022-07-29T00:01:26;4.93;;;4.53;;
73512;SDS011;61754;55.008;73.348;2022-07-29T00:04:00;7.78;;;4.70;;
73512;SDS011;61754;55.008;73.348;2022-07-29T00:06:26;5.40;;;4.90;;
73512;SDS011;61754;55.008;73.348;2022-07-29T00:08:52;5.25;;;4.80;;
73512;SDS011;61754;55.008;73.348;2022-07-29T00:11:22;4.28;;;3.88;;
73512;SDS011;61754;55.008;73.348;2022-07-29T00:13:48;4.32;;;3.95;;
73512;SDS011;61754;55.008;73.348;2022-07-29T00:16:17;4.40;;;3.72;;
73512;SDS011;61754;55.008;73.348;2022-07-29T00:18:43;4.03;;;3.72;;
73512;SDS011;61754;55.008;73.348;2022-07-29T00:21:09;4.07;;;3.78;;
73512;SDS011;61754;55.008;73.348;2022-07-29T00:23:39;4.47;;;4.10;;
73512;SDS011;61754;55.008;73.348;2022-07-29T00:26:12;3.92;;;3.50;;
73512;SDS011;61754;55.008;73.348;2022-07-29T00:28:48;4.38;;;3.97;;
73512;SDS011;61754;55.008;73.348;2022-07-29T00:31:14;4.30;;;3.90;;
73512;SDS011;61754;55.008;73.348;2022-07-29T00:33:40;3.90;;;3.47;;
73512;SDS011;61754;55.008;73.348;2022-07-29T00:36:12;4.13;;;3.83;;
73512;SDS011;61754;55.008;73.348;2022-07-29T00:38:38;3.90;;;3.60;;
73512;SDS011;61754;55.008;73.348;2022-07-29T00:41:04;4.05;;;3.75;;
73512;SDS011;61754;55.008;73.348;2022-07-29T00:43:30;3.20;;;3.00;;
73512;SDS011;61754;55.008;73.348;2022-07-29T00:45:56;4.22;;;3.45;;
73512;SDS011;61754;55.008;73.348;2022-07-29T00:48:22;3.20;;;2.90;;
73512;SDS011;61754;55.008;73.348;2022-07-29T00:50:48;3.33;;;3.03;;
73512;SDS011;61754;55.008;73.348;2022-07-29T00:53:15;2.67;;;2.47;;
73512;SDS011;61754;55.008;73.348;2022-07-29T00:55:46;2.90;;;2.70;;
73512;SDS011;61754;55.008;73.348;2022-07-29T00:58:17;3.20;;;2.92;;
73512;SDS011;61754;55.008;73.348;2022-07-29T01:00:43;6.05;;;4.28;;
73512;SDS011;61754;55.008;73.348;2022-07-29T01:03:20;3.00;;;2.80;;
73512;SDS011;61754;55.008;73.348;2022-07-29T01:05:46;3.22;;;3.00;;
73512;SDS011;61754;55.008;73.348;2022-07-29T01:08:12;3.53;;;3.30;;
73512;SDS011;61754;55.008;73.348;2022-07-29T01:10:39;3.63;;;3.33;;
73512;SDS011;61754;55.008;73.348;2022-07-29T01:13:12;4.35;;;3.20;;
73512;SDS011;61754;55.008;73.348;2022-07-29T01:15:44;3.75;;;2.78;;
73512;SDS011;61754;55.008;73.348;2022-07-29T01:18:14;2.92;;;2.72;;
73512;SDS011;61754;55.008;73.348;2022-07-29T01:21:07;3.63;;;3.13;;
73512;SDS011;61754;55.008;73.348;2022-07-29T01:29:12;3.33;;;3.03;;
73512;SDS011;61754;55.008;73.348;2022-07-29T01:31:43;3.50;;;3.20;;
73512;SDS011;61754;55.008;73.348;2022-07-29T01:34:11;4.38;;;3.22;;
73512;SDS011;61754;55.008;73.348;2022-07-29T01:36:43;3.67;;;3.35;;
73512;SDS011;61754;55.008;73.348;2022-07-29T01:39:19;3.88;;;3.65;;
73512;SDS011;61754;55.008;73.348;2022-07-29T01:41:49;4.38;;;4.00;;
73512;SDS011;61754;55.008;73.348;2022-07-29T01:44:35;6.63;;;3.78;;
73512;SDS011;61754;55.008;73.348;2022-07-29T01:47:14;3.75;;;3.45;;
73512;SDS011;61754;55.008;73.348;2022-07-29T01:49:44;4.15;;;3.80;;
73512;SDS011;61754;55.008;73.348;2022-07-29T01:52:23;4.35;;;4.00;;
73512;SDS011;61754;55.008;73.348;2022-07-29T01:54:55;4.03;;;3.53;;
73512;SDS011;61754;55.008;73.348;2022-07-29T01:57:25;7.78;;;4.45;;
73512;SDS011;61754;55.008;73.348;2022-07-29T01:59:51;5.47;;;4.40;;
73512;SDS011;61754;55.008;73.348;2022-07-29T02:02:18;5.30;;;4.82;;
73512;SDS011;61754;55.008;73.348;2022-07-29T02:04:44;6.10;;;4.82;;
73512;SDS011;61754;55.008;73.348;2022-07-29T02:07:15;8.15;;;4.72;;
73512;SDS011;61754;55.008;73.348;2022-07-29T02:09:42;6.18;;;4.75;;
73512;SDS011;61754;55.008;73.348;2022-07-29T02:12:09;5.57;;;5.07;;
73512;SDS011;61754;55.008;73.348;2022-07-29T02:14:37;4.90;;;4.40;;
73512;SDS011;61754;55.008;73.348;2022-07-29T02:17:04;9.75;;;6.88;;
73512;SDS011;61754;55.008;73.348;2022-07-29T02:19:31;5.18;;;4.68;;
73512;SDS011;61754;55.008;73.348;2022-07-29T02:21:57;6.03;;;4.68;;
73512;SDS011;61754;55.008;73.348;2022-07-29T02:24:24;5.03;;;4.63;;
73512;SDS011;61754;55.008;73.348;2022-07-29T02:26:51;5.10;;;4.57;;
73512;SDS011;61754;55.008;73.348;2022-07-29T02:29:19;6.03;;;4.90;;
73512;SDS011;61754;55.008;73.348;2022-07-29T02:31:52;5.63;;;4.82;;
73512;SDS011;61754;55.008;73.348;2022-07-29T02:34:20;5.20;;;4.80;;
73512;SDS011;61754;55.008;73.348;2022-07-29T02:36:46;4.78;;;4.28;;
73512;SDS011;61754;55.008;73.348;2022-07-29T02:39:13;6.00;;;4.60;;
73512;SDS011;61754;55.008;73.348;2022-07-29T02:42:02;6.28;;;4.32;;
73512;SDS011;61754;55.008;73.348;2022-07-29T02:44:33;4.57;;;4.18;;
73512;SDS011;61754;55.008;73.348;2022-07-29T02:47:07;4.32;;;4.03;;
73512;SDS011;61754;55.008;73.348;2022-07-29T02:54:37;4.13;;;3.83;;
73512;SDS011;61754;55.008;73.348;2022-07-29T02:57:14;3.38;;;3.17;;
73512;SDS011;61754;55.008;73.348;2022-07-29T02:59:50;3.25;;;2.90;;
73512;SDS011;61754;55.008;73.348;2022-07-29T03:02:17;5.80;;;3.20;;
73512;SDS011;61754;55.008;73.348;2022-07-29T03:04:44;3.53;;;3.17;;
73512;SDS011;61754;55.008;73.348;2022-07-29T03:07:10;3.30;;;3.00;;
73512;SDS011;61754;55.008;73.348;2022-07-29T03:09:38;4.95;;;3.30;;
73512;SDS011;61754;55.008;73.348;2022-07-29T03:12:07;3.50;;;3.20;;
73512;SDS011;61754;55.008;73.348;2022-07-29T03:14:33;3.47;;;3.17;;
73512;SDS011;61754;55.008;73.348;2022-07-29T03:17:00;4.28;;;3.63;;
73512;SDS011;61754;55.008;73.348;2022-07-29T03:19:37;4.90;;;4.13;;
73512;SDS011;61754;55.008;73.348;2022-07-29T03:22:03;3.20;;;2.88;;
73512;SDS011;61754;55.008;73.348;2022-07-29T03:24:31;3.33;;;3.08;;
73512;SDS011;61754;55.008;73.348;2022-07-29T03:26:57;2.95;;;2.75;;
73512;SDS011;61754;55.008;73.348;2022-07-29T03:29:23;3.28;;;2.97;;
73512;SDS011;61754;55.008;73.348;2022-07-29T03:31:50;3.28;;;3.08;;
73512;SDS011;61754;55.008;73.348;2022-07-29T03:34:16;4.72;;;3.63;;
73512;SDS011;61754;55.008;73.348;2022-07-29T03:36:42;10.30;;;3.80;;
73512;SDS011;61754;55.008;73.348;2022-07-29T03:39:15;5.68;;;3.10;;
73512;SDS011;61754;55.008;73.348;2022-07-29T03:41:42;3.60;;;2.92;;
73512;SDS011;61754;55.008;73.348;2022-07-29T03:44:10;3.33;;;3.05;;
73512;SDS011;61754;55.008;73.348;2022-07-29T03:46:36;3.75;;;2.70;;
73512;SDS011;61754;55.008;73.348;2022-07-29T03:49:03;2.95;;;2.75;;
73512;SDS011;61754;55.008;73.348;2022-07-29T03:51:29;3.00;;;2.80;;
73512;SDS011;61754;55.008;73.348;2022-07-29T03:54:02;2.90;;;2.55;;
73512;SDS011;61754;55.008;73.348;2022-07-29T03:56:29;2.85;;;2.33;;
73512;SDS011;61754;55.008;73.348;2022-07-29T03:58:55;3.30;;;2.70;;
73512;SDS011;61754;55.008;73.348;2022-07-29T04:01:21;5.20;;;2.58;;
73512;SDS011;61754;55.008;73.348;2022-07-29T04:03:48;3.30;;;3.10;;
73512;SDS011;61754;55.008;73.348;2022-07-29T04:06:14;3.03;;;2.83;;
73512;SDS011;61754;55.008;73.348;2022-07-29T04:08:40;4.03;;;3.63;;
73512;SDS011;61754;55.008;73.348;2022-07-29T04:11:06;4.93;;;4.47;;
73512;SDS011;61754;55.008;73.348;2022-07-29T04:13:32;7.15;;;6.45;;
73512;SDS011;61754;55.008;73.348;2022-07-29T04:15:58;13.98;;;10.65;;
73512;SDS011;61754;55.008;73.348;2022-07-29T04:18:24;13.63;;;9.18;;
73512;SDS011;61754;55.008;73.348;2022-07-29T04:20:55;12.32;;;9.15;;
73512;SDS011;61754;55.008;73.348;2022-07-29T04:23:24;13.40;;;10.20;;
73512;SDS011;61754;55.008;73.348;2022-07-29T04:25:51;15.73;;;10.32;;
73512;SDS011;61754;55.008;73.348;2022-07-29T04:28:17;13.32;;;10.57;;
73512;SDS011;61754;55.008;73.348;2022-07-29T04:30:43;19.38;;;11.20;;
73512;SDS011;61754;55.008;73.348;2022-07-29T04:33:14;14.13;;;10.85;;
73512;SDS011;61754;55.008;73.348;2022-07-29T04:35:40;10.60;;;9.50;;
73512;SDS011;61754;55.008;73.348;2022-07-29T04:38:06;12.75;;;10.80;;
73512;SDS011;61754;55.008;73.348;2022-07-29T04:40:33;14.80;;;10.80;;
73512;SDS011;61754;55.008;73.348;2022-07-29T04:42:59;15.00;;;11.35;;
73512;SDS011;61754;55.008;73.348;2022-07-29T04:45:26;15.45;;;10.93;;
73512;SDS011;61754;55.008;73.348;2022-07-29T04:47:53;16.70;;;11.65;;
73512;SDS011;61754;55.008;73.348;2022-07-29T04:50:19;20.08;;;12.02;;
73512;SDS011;61754;55.008;73.348;2022-07-29T04:52:55;18.35;;;10.82;;
73512;SDS011;61754;55.008;73.348;2022-07-29T04:55:21;12.60;;;11.02;;
73512;SDS011;61754;55.008;73.348;2022-07-29T04:57:47;13.15;;;11.77;;
73512;SDS011;61754;55.008;73.348;2022-07-29T05:00:13;12.35;;;11.00;;
73512;SDS011;61754;55.008;73.348;2022-07-29T05:02:39;13.02;;;11.65;;
73512;SDS011;61754;55.008;73.348;2022-07-29T05:05:15;18.88;;;12.07;;
73512;SDS011;61754;55.008;73.348;2022-07-29T05:07:41;13.82;;;11.05;;
73512;SDS011;61754;55.008;73.348;2022-07-29T05:10:08;11.98;;;10.30;;
73512;SDS011;61754;55.008;73.348;2022-07-29T05:12:34;13.75;;;10.25;;
73512;SDS011;61754;55.008;73.348;2022-07-29T05:15:00;12.45;;;10.35;;
73512;SDS011;61754;55.008;73.348;2022-07-29T05:17:26;11.77;;;10.60;;
73512;SDS011;61754;55.008;73.348;2022-07-29T05:19:52;12.10;;;9.25;;
73512;SDS011;61754;55.008;73.348;2022-07-29T05:22:18;14.57;;;9.50;;
73512;SDS011;61754;55.008;73.348;2022-07-29T05:24:45;12.35;;;9.65;;
73512;SDS011;61754;55.008;73.348;2022-07-29T05:27:11;10.43;;;8.93;;
73512;SDS011;61754;55.008;73.348;2022-07-29T05:29:37;16.17;;;8.82;;
73512;SDS011;61754;55.008;73.348;2022-07-29T05:32:03;19.30;;;9.57;;
73512;SDS011;61754;55.008;73.348;2022-07-29T05:34:29;10.90;;;8.50;;
73512;SDS011;61754;55.008;73.348;2022-07-29T05:36:56;10.30;;;8.82;;
73512;SDS011;61754;55.008;73.348;2022-07-29T05:39:26;9.40;;;7.95;;
73512;SDS011;61754;55.008;73.348;2022-07-29T05:42:02;10.18;;;8.98;;
73512;SDS011;61754;55.008;73.348;2022-07-29T05:44:28;8.98;;;8.05;;
73512;SDS011;61754;55.008;73.348;2022-07-29T05:46:54;8.63;;;7.80;;
73512;SDS011;61754;55.008;73.348;2022-07-29T05:49:30;11.73;;;7.47;;
73512;SDS011;61754;55.008;73.348;2022-07-29T05:51:56;11.90;;;7.65;;
73512;SDS011;61754;55.008;73.348;2022-07-29T05:54:22;11.52;;;7.28;;
73512;SDS011;61754;55.008;73.348;2022-07-29T05:56:48;10.25;;;7.03;;
73512;SDS011;61754;55.008;73.348;2022-07-29T05:59:14;10.63;;;8.13;;
73512;SDS011;61754;55.008;73.348;2022-07-29T06:01:40;12.30;;;7.50;;
73512;SDS011;61754;55.008;73.348;2022-07-29T06:04:07;11.25;;;7.97;;
73512;SDS011;61754;55.008;73.348;2022-07-29T06:06:33;10.50;;;7.90;;
73512;SDS011;61754;55.008;73.348;2022-07-29T06:09:00;8.32;;;7.10;;
73512;SDS011;61754;55.008;73.348;2022-07-29T06:11:26;9.68;;;7.00;;
73512;SDS011;61754;55.008;73.348;2022-07-29T06:13:52;7.75;;;5.60;;
73512;SDS011;61754;55.008;73.348;2022-07-29T06:16:18;11.10;;;6.82;;
73512;SDS011;61754;55.008;73.348;2022-07-29T06:18:44;9.90;;;6.50;;
73512;SDS011;61754;55.008;73.348;2022-07-29T06:21:10;7.70;;;7.00;;
73512;SDS011;61754;55.008;73.348;2022-07-29T06:23:37;10.88;;;7.13;;
73512;SDS011;61754;55.008;73.348;2022-07-29T06:26:03;10.55;;;6.70;;
73512;SDS011;61754;55.008;73.348;2022-07-29T06:28:30;7.30;;;6.50;;
73512;SDS011;61754;55.008;73.348;2022-07-29T06:30:56;9.45;;;6.55;;
73512;SDS011;61754;55.008;73.348;2022-07-29T06:33:22;10.57;;;7.18;;
73512;SDS011;61754;55.008;73.348;2022-07-29T06:35:48;9.00;;;6.22;;
73512;SDS011;61754;55.008;73.348;2022-07-29T06:38:15;10.45;;;6.70;;
73512;SDS011;61754;55.008;73.348;2022-07-29T06:40:44;11.00;;;6.55;;
73512;SDS011;61754;55.008;73.348;2022-07-29T06:43:36;12.07;;;7.28;;
73512;SDS011;61754;55.008;73.348;2022-07-29T06:46:07;12.85;;;7.22;;
73512;SDS011;61754;55.008;73.348;2022-07-29T06:48:34;19.75;;;6.95;;
73512;SDS011;61754;55.008;73.348;2022-07-29T06:51:01;7.53;;;6.55;;
73512;SDS011;61754;55.008;73.348;2022-07-29T06:53:28;9.45;;;5.82;;
73512;SDS011;61754;55.008;73.348;2022-07-29T06:55:54;8.05;;;7.05;;
73512;SDS011;61754;55.008;73.348;2022-07-29T06:58:20;11.75;;;6.80;;
73512;SDS011;61754;55.008;73.348;2022-07-29T07:01:00;7.00;;;6.38;;
73512;SDS011;61754;55.008;73.348;2022-07-29T07:03:26;10.70;;;6.55;;
73512;SDS011;61754;55.008;73.348;2022-07-29T07:06:02;22.92;;;6.45;;
73512;SDS011;61754;55.008;73.348;2022-07-29T07:08:28;7.22;;;6.28;;
73512;SDS011;61754;55.008;73.348;2022-07-29T07:10:54;14.07;;;6.53;;
73512;SDS011;61754;55.008;73.348;2022-07-29T07:13:22;9.82;;;6.35;;
73512;SDS011;61754;55.008;73.348;2022-07-29T07:15:52;7.28;;;6.32;;
73512;SDS011;61754;55.008;73.348;2022-07-29T07:18:18;7.70;;;6.80;;
73512;SDS011;61754;55.008;73.348;2022-07-29T07:20:55;8.98;;;6.30;;
73512;SDS011;61754;55.008;73.348;2022-07-29T07:23:21;10.88;;;6.82;;
73512;SDS011;61754;55.008;73.348;2022-07-29T07:25:48;12.10;;;6.43;;
73512;SDS011;61754;55.008;73.348;2022-07-29T07:28:14;7.35;;;6.63;;
73512;SDS011;61754;55.008;73.348;2022-07-29T07:30:40;10.30;;;7.00;;
73512;SDS011;61754;55.008;73.348;2022-07-29T07:33:06;9.18;;;6.07;;
73512;SDS011;61754;55.008;73.348;2022-07-29T07:35:32;10.38;;;6.68;;
73512;SDS011;61754;55.008;73.348;2022-07-29T07:37:58;15.27;;;6.20;;
73512;SDS011;61754;55.008;73.348;2022-07-29T07:40:24;12.65;;;6.88;;
73512;SDS011;61754;55.008;73.348;2022-07-29T07:42:55;6.77;;;6.00;;
73512;SDS011;61754;55.008;73.348;2022-07-29T07:45:21;8.15;;;6.18;;
73512;SDS011;61754;55.008;73.348;2022-07-29T07:47:48;7.05;;;6.15;;
73512;SDS011;61754;55.008;73.348;2022-07-29T07:50:14;6.07;;;5.50;;
73512;SDS011;61754;55.008;73.348;2022-07-29T07:52:47;12.25;;;6.13;;
73512;SDS011;61754;55.008;73.348;2022-07-29T07:55:18;8.13;;;6.28;;
73512;SDS011;61754;55.008;73.348;2022-07-29T07:57:45;8.02;;;5.85;;
73512;SDS011;61754;55.008;73.348;2022-07-29T08:00:20;7.78;;;6.53;;
73512;SDS011;61754;55.008;73.348;2022-07-29T08:02:47;10.45;;;5.45;;
73512;SDS011;61754;55.008;73.348;2022-07-29T08:05:13;12.05;;;6.20;;
73512;SDS011;61754;55.008;73.348;2022-07-29T08:07:46;14.23;;;5.80;;
73512;SDS011;61754;55.008;73.348;2022-07-29T08:10:26;9.43;;;6.20;;
73512;SDS011;61754;55.008;73.348;2022-07-29T08:13:16;8.68;;;5.60;;
73512;SDS011;61754;55.008;73.348;2022-07-29T08:15:42;5.50;;;5.10;;
73512;SDS011;61754;55.008;73.348;2022-07-29T08:18:08;8.55;;;5.93;;
73512;SDS011;61754;55.008;73.348;2022-07-29T08:20:35;11.50;;;6.55;;
73512;SDS011;61754;55.008;73.348;2022-07-29T08:23:02;10.07;;;5.43;;
73512;SDS011;61754;55.008;73.348;2022-07-29T08:25:28;10.23;;;5.53;;
73512;SDS011;61754;55.008;73.348;2022-07-29T08:27:54;6.47;;;5.72;;
73512;SDS011;61754;55.008;73.348;2022-07-29T08:30:20;9.43;;;5.57;;
73512;SDS011;61754;55.008;73.348;2022-07-29T08:32:51;6.78;;;6.03;;
73512;SDS011;61754;55.008;73.348;2022-07-29T08:35:19;13.65;;;6.40;;
73512;SDS011;61754;55.008;73.348;2022-07-29T08:37:47;12.05;;;6.45;;
73512;SDS011;61754;55.008;73.348;2022-07-29T08:40:13;6.65;;;6.07;;
73512;SDS011;61754;55.008;73.348;2022-07-29T08:42:40;7.75;;;6.18;;
73512;SDS011;61754;55.008;73.348;2022-07-29T08:45:06;8.40;;;6.25;;
73512;SDS011;61754;55.008;73.348;2022-07-29T08:47:32;9.77;;;6.20;;
73512;SDS011;61754;55.008;73.348;2022-07-29T08:49:58;11.63;;;6.35;;
73512;SDS011;61754;55.008;73.348;2022-07-29T08:52:25;9.80;;;6.13;;
73512;SDS011;61754;55.008;73.348;2022-07-29T08:54:52;13.18;;;6.70;;
73512;SDS011;61754;55.008;73.348;2022-07-29T08:57:18;7.72;;;6.32;;
73512;SDS011;61754;55.008;73.348;2022-07-29T08:59:45;11.52;;;6.72;;
73512;SDS011;61754;55.008;73.348;2022-07-29T09:02:18;8.40;;;6.03;;
73512;SDS011;61754;55.008;73.348;2022-07-29T09:04:55;19.42;;;6.13;;
73512;SDS011;61754;55.008;73.348;2022-07-29T09:07:22;13.10;;;6.53;;
73512;SDS011;61754;55.008;73.348;2022-07-29T09:09:48;9.95;;;6.60;;
73512;SDS011;61754;55.008;73.348;2022-07-29T09:12:14;7.65;;;6.22;;
73512;SDS011;61754;55.008;73.348;2022-07-29T09:14:40;7.53;;;6.45;;
73512;SDS011;61754;55.008;73.348;2022-07-29T09:17:07;15.55;;;6.85;;
73512;SDS011;61754;55.008;73.348;2022-07-29T09:19:34;17.17;;;7.55;;
73512;SDS011;61754;55.008;73.348;2022-07-29T09:22:01;9.32;;;7.88;;
73512;SDS011;61754;55.008;73.348;2022-07-29T09:27:03;9.88;;;7.25;;
73512;SDS011;61754;55.008;73.348;2022-07-29T09:29:43;10.60;;;6.53;;
73512;SDS011;61754;55.008;73.348;2022-07-29T09:32:14;9.45;;;6.03;;
73512;SDS011;61754;55.008;73.348;2022-07-29T09:34:40;16.45;;;6.78;;
73512;SDS011;61754;55.008;73.348;2022-07-29T09:37:29;14.20;;;7.32;;
73512;SDS011;61754;55.008;73.348;2022-07-29T09:39:55;10.05;;;6.65;;
73512;SDS011;61754;55.008;73.348;2022-07-29T09:42:28;11.68;;;6.50;;
73512;SDS011;61754;55.008;73.348;2022-07-29T09:45:03;8.68;;;6.53;;
73512;SDS011;61754;55.008;73.348;2022-07-29T09:47:40;12.48;;;6.80;;
73512;SDS011;61754;55.008;73.348;2022-07-29T09:50:06;8.52;;;6.78;;
73512;SDS011;61754;55.008;73.348;2022-07-29T09:53:10;7.65;;;5.60;;
73512;SDS011;61754;55.008;73.348;2022-07-29T09:55:50;8.45;;;6.53;;
73512;SDS011;61754;55.008;73.348;2022-07-29T09:58:20;9.27;;;6.00;;
73512;SDS011;61754;55.008;73.348;2022-07-29T10:00:46;11.00;;;6.63;;
73512;SDS011;61754;55.008;73.348;2022-07-29T10:03:13;8.95;;;6.40;;
73512;SDS011;61754;55.008;73.348;2022-07-29T10:05:39;7.47;;;6.78;;
73512;SDS011;61754;55.008;73.348;2022-07-29T10:08:08;8.38;;;5.93;;
73512;SDS011;61754;55.008;73.348;2022-07-29T10:10:36;12.10;;;6.50;;
73512;SDS011;61754;55.008;73.348;2022-07-29T10:13:07;11.10;;;6.50;;
73512;SDS011;61754;55.008;73.348;2022-07-29T10:15:34;8.48;;;6.22;;
73512;SDS011;61754;55.008;73.348;2022-07-29T10:18:06;7.55;;;6.22;;
73512;SDS011;61754;55.008;73.348;2022-07-29T10:20:33;8.20;;;6.70;;
73512;SDS011;61754;55.008;73.348;2022-07-29T10:22:59;14.65;;;6.47;;
73512;SDS011;61754;55.008;73.348;2022-07-29T10:25:26;8.85;;;6.97;;
73512;SDS011;61754;55.008;73.348;2022-07-29T10:27:52;13.38;;;6.95;;
73512;SDS011;61754;55.008;73.348;2022-07-29T10:30:19;7.93;;;6.57;;
73512;SDS011;61754;55.008;73.348;2022-07-29T10:43:49;8.25;;;6.22;;
73512;SDS011;61754;55.008;73.348;2022-07-29T10:46:17;7.20;;;6.43;;
73512;SDS011;61754;55.008;73.348;2022-07-29T10:51:50;10.18;;;7.03;;
73512;SDS011;61754;55.008;73.348;2022-07-29T10:59:49;11.30;;;6.47;;
73512;SDS011;61754;55.008;73.348;2022-07-29T11:07:23;10.00;;;7.22;;
73512;SDS011;61754;55.008;73.348;2022-07-29T11:15:12;8.77;;;6.38;;
73512;SDS011;61754;55.008;73.348;2022-07-29T11:20:34;10.25;;;6.25;;
73512;SDS011;61754;55.008;73.348;2022-07-29T11:23:00;9.82;;;6.47;;
73512;SDS011;61754;55.008;73.348;2022-07-29T11:25:26;8.85;;;7.50;;
73512;SDS011;61754;55.008;73.348;2022-07-29T11:28:02;8.48;;;6.43;;
73512;SDS011;61754;55.008;73.348;2022-07-29T11:30:52;7.25;;;6.47;;
73512;SDS011;61754;55.008;73.348;2022-07-29T11:33:33;15.63;;;6.57;;
73512;SDS011;61754;55.008;73.348;2022-07-29T11:36:07;6.95;;;5.63;;
73512;SDS011;61754;55.008;73.348;2022-07-29T11:38:34;11.57;;;6.43;;
73512;SDS011;61754;55.008;73.348;2022-07-29T11:49:02;7.13;;;5.93;;
73512;SDS011;61754;55.008;73.348;2022-07-29T11:51:35;9.35;;;5.80;;
73512;SDS011;61754;55.008;73.348;2022-07-29T11:54:01;8.10;;;6.10;;
73512;SDS011;61754;55.008;73.348;2022-07-29T11:56:27;8.63;;;6.10;;
73512;SDS011;61754;55.008;73.348;2022-07-29T11:59:03;10.82;;;6.30;;
73512;SDS011;61754;55.008;73.348;2022-07-29T12:01:51;6.10;;;5.35;;
73512;SDS011;61754;55.008;73.348;2022-07-29T12:04:17;8.30;;;6.15;;
73512;SDS011;61754;55.008;73.348;2022-07-29T12:06:53;12.18;;;5.85;;
73512;SDS011;61754;55.008;73.348;2022-07-29T12:09:26;12.75;;;6.22;;
73512;SDS011;61754;55.008;73.348;2022-07-29T12:11:58;12.38;;;7.22;;
73512;SDS011;61754;55.008;73.348;2022-07-29T12:14:32;16.25;;;6.90;;
73512;SDS011;61754;55.008;73.348;2022-07-29T12:17:04;11.02;;;6.00;;
73512;SDS011;61754;55.008;73.348;2022-07-29T12:19:41;12.77;;;6.95;;
73512;SDS011;61754;55.008;73.348;2022-07-29T12:22:08;7.13;;;6.20;;
73512;SDS011;61754;55.008;73.348;2022-07-29T12:24:44;10.20;;;6.78;;
73512;SDS011;61754;55.008;73.348;2022-07-29T12:27:20;7.20;;;6.50;;
73512;SDS011;61754;55.008;73.348;2022-07-29T12:29:58;9.55;;;5.43;;
73512;SDS011;61754;55.008;73.348;2022-07-29T12:32:31;17.53;;;6.60;;
73512;SDS011;61754;55.008;73.348;2022-07-29T12:35:03;9.02;;;6.25;;
73512;SDS011;61754;55.008;73.348;2022-07-29T12:37:30;6.60;;;5.90;;
73512;SDS011;61754;55.008;73.348;2022-07-29T12:39:57;11.95;;;5.75;;
73512;SDS011;61754;55.008;73.348;2022-07-29T12:42:23;6.72;;;5.05;;
73512;SDS011;61754;55.008;73.348;2022-07-29T12:44:49;11.52;;;4.88;;
73512;SDS011;61754;55.008;73.348;2022-07-29T12:47:16;6.18;;;5.40;;
73512;SDS011;61754;55.008;73.348;2022-07-29T12:49:44;5.53;;;5.13;;
73512;SDS011;61754;55.008;73.348;2022-07-29T12:54:59;8.43;;;5.38;;
73512;SDS011;61754;55.008;73.348;2022-07-29T12:57:32;12.52;;;5.90;;
73512;SDS011;61754;55.008;73.348;2022-07-29T13:00:16;6.57;;;5.88;;
73512;SDS011;61754;55.008;73.348;2022-07-29T13:02:44;8.18;;;6.35;;
73512;SDS011;61754;55.008;73.348;2022-07-29T13:05:19;6.95;;;5.10;;
73512;SDS011;61754;55.008;73.348;2022-07-29T13:07:46;9.55;;;5.72;;
73512;SDS011;61754;55.008;73.348;2022-07-29T13:10:16;9.32;;;4.93;;
73512;SDS011;61754;55.008;73.348;2022-07-29T13:15:46;10.13;;;4.70;;
73512;SDS011;61754;55.008;73.348;2022-07-29T13:18:40;9.55;;;5.10;;
73512;SDS011;61754;55.008;73.348;2022-07-29T13:21:14;6.78;;;5.25;;
73512;SDS011;61754;55.008;73.348;2022-07-29T13:23:40;8.32;;;4.68;;
73512;SDS011;61754;55.008;73.348;2022-07-29T13:26:10;6.30;;;4.45;;
73512;SDS011;61754;55.008;73.348;2022-07-29T13:28:46;6.82;;;4.90;;
73512;SDS011;61754;55.008;73.348;2022-07-29T13:31:12;11.20;;;4.80;;
73512;SDS011;61754;55.008;73.348;2022-07-29T13:33:38;7.07;;;4.10;;
73512;SDS011;61754;55.008;73.348;2022-07-29T13:36:04;6.70;;;4.32;;
73512;SDS011;61754;55.008;73.348;2022-07-29T13:38:30;9.35;;;5.03;;
73512;SDS011;61754;55.008;73.348;2022-07-29T13:41:02;7.78;;;4.25;;
73512;SDS011;61754;55.008;73.348;2022-07-29T13:43:28;9.43;;;4.72;;
73512;SDS011;61754;55.008;73.348;2022-07-29T13:45:54;8.73;;;4.50;;
73512;SDS011;61754;55.008;73.348;2022-07-29T13:48:20;4.80;;;4.07;;
73512;SDS011;61754;55.008;73.348;2022-07-29T13:50:46;5.50;;;4.25;;
73512;SDS011;61754;55.008;73.348;2022-07-29T13:53:13;4.80;;;4.35;;
73512;SDS011;61754;55.008;73.348;2022-07-29T13:55:39;11.20;;;4.93;;
73512;SDS011;61754;55.008;73.348;2022-07-29T13:58:05;5.20;;;4.25;;
73512;SDS011;61754;55.008;73.348;2022-07-29T14:00:31;9.40;;;4.70;;
73512;SDS011;61754;55.008;73.348;2022-07-29T14:02:57;7.47;;;4.13;;
73512;SDS011;61754;55.008;73.348;2022-07-29T14:05:28;10.52;;;4.35;;
73512;SDS011;61754;55.008;73.348;2022-07-29T14:07:54;10.48;;;4.25;;
73512;SDS011;61754;55.008;73.348;2022-07-29T14:10:20;5.20;;;4.13;;
73512;SDS011;61754;55.008;73.348;2022-07-29T14:12:46;12.18;;;4.22;;
73512;SDS011;61754;55.008;73.348;2022-07-29T14:15:12;6.10;;;3.92;;
73512;SDS011;61754;55.008;73.348;2022-07-29T14:17:38;11.07;;;4.03;;
73512;SDS011;61754;55.008;73.348;2022-07-29T14:20:09;5.97;;;4.40;;
73512;SDS011;61754;55.008;73.348;2022-07-29T14:22:41;9.10;;;4.28;;
73512;SDS011;61754;55.008;73.348;2022-07-29T14:25:08;8.10;;;4.55;;
73512;SDS011;61754;55.008;73.348;2022-07-29T14:27:34;4.32;;;3.92;;
73512;SDS011;61754;55.008;73.348;2022-07-29T14:30:00;8.85;;;6.15;;
73512;SDS011;61754;55.008;73.348;2022-07-29T14:32:26;11.20;;;5.70;;
73512;SDS011;61754;55.008;73.348;2022-07-29T14:34:52;7.75;;;5.72;;
73512;SDS011;61754;55.008;73.348;2022-07-29T14:37:18;11.43;;;5.00;;
73512;SDS011;61754;55.008;73.348;2022-07-29T14:39:45;11.15;;;4.68;;
73512;SDS011;61754;55.008;73.348;2022-07-29T14:42:11;7.32;;;5.03;;
73512;SDS011;61754;55.008;73.348;2022-07-29T14:44:39;9.95;;;5.63;;
73512;SDS011;61754;55.008;73.348;2022-07-29T14:47:05;7.60;;;4.65;;
73512;SDS011;61754;55.008;73.348;2022-07-29T14:49:31;7.15;;;4.88;;
73512;SDS011;61754;55.008;73.348;2022-07-29T14:51:57;10.02;;;4.07;;
73512;SDS011;61754;55.008;73.348;2022-07-29T14:54:23;5.57;;;3.80;;
73512;SDS011;61754;55.008;73.348;2022-07-29T14:56:49;7.03;;;3.97;;
73512;SDS011;61754;55.008;73.348;2022-07-29T14:59:16;6.93;;;4.03;;
73512;SDS011;61754;55.008;73.348;2022-07-29T15:01:42;5.95;;;4.20;;
73512;SDS011;61754;55.008;73.348;2022-07-29T15:04:08;8.52;;;4.60;;
73512;SDS011;61754;55.008;73.348;2022-07-29T15:06:34;9.63;;;4.40;;
73512;SDS011;61754;55.008;73.348;2022-07-29T15:09:01;5.18;;;4.10;;
73512;SDS011;61754;55.008;73.348;2022-07-29T15:11:33;14.27;;;4.75;;
73512;SDS011;61754;55.008;73.348;2022-07-29T15:13:59;6.57;;;4.40;;
73512;SDS011;61754;55.008;73.348;2022-07-29T15:16:25;10.00;;;4.43;;
73512;SDS011;61754;55.008;73.348;2022-07-29T15:18:51;16.77;;;4.45;;
73512;SDS011;61754;55.008;73.348;2022-07-29T15:21:17;6.13;;;4.05;;
73512;SDS011;61754;55.008;73.348;2022-07-29T15:23:43;4.72;;;4.18;;
73512;SDS011;61754;55.008;73.348;2022-07-29T15:26:09;5.10;;;4.00;;
73512;SDS011;61754;55.008;73.348;2022-07-29T15:28:35;6.22;;;4.05;;
73512;SDS011;61754;55.008;73.348;2022-07-29T15:31:01;5.93;;;4.20;;
73512;SDS011;61754;55.008;73.348;2022-07-29T15:33:27;7.18;;;4.10;;
73512;SDS011;61754;55.008;73.348;2022-07-29T15:36:04;4.88;;;3.38;;
73512;SDS011;61754;55.008;73.348;2022-07-29T15:38:30;12.85;;;3.20;;